Etusivu
METAR-TAF:

METAR-TAF

Lentoasemat :

Penticton, Brittiläinen Kolumbia, Kanada

Leveyspiiri: 49-28N, Pituuspiiri: 119-36W, korkeus merenpinnasta: 344 m

Tämänhetkinen sää

Tämä raportti tehtiin 32 minuuttia sitten, kello 09.00 UTC
Tuuli 5 kn pohjoisesta
Lämpötila -4°C
Kosteus 63%
Ilmanpaine 1031 hPa
Näkyvyys: 24.1 km
selkeää

METAR: CYYF 190900Z 36005KT 15SM SKC M04/M10 A3044 RMK SLP326

Aika: 01:32 (09:32 UTC)

Sääennuste

Tämä raportti tehtiin 2 tuntia ja 54 minuuttia sitten, kello 06.38 UTC
Ennuste voimassa 19. päivästä klo 07 UTC - 19. päivään klo 19 UTC
Tuuli 6 kn pohjoisesta
Näkyvyys: 10 km
selkeää

TAF: CYYF 190638Z 1907/1919 36006KT P6SM SKC RMK NXT FCST BY 191300Z

Säähavainnot ja -ennusteet yli 4000 lentoasemalta (METAR- ja TAF-raportit).

Käytössä olevat sääasemat on merkitty karttaan keltaisilla ja punaisilla pisteillä.

Aseta hiiri pisteen päälle nähdäksesi sääaseman nimen.

Klikkaa sitten nähdäksesi säähavainnot ja -ennusteet.

Kartan vaihtaminen: klikkaa mustalla rastilla varustettuja vihreitä pisteitä, niin voit zoomata sisään; viivalla varustettua vihreää pistettä, niin voit zoomata ulos tai vihreitä nuolia, niin pääset viereisille kartoille.


METAR-TAF: